»·PEaware :: SWA5945 KBUR-KTUS

SWA5945 :: KBUR-KTUS

FLIGHT INFORMATION

Flight Status: Arrived
Operator:
Southwest Airlines
More flights by this operator :: More flights under this callsign
Pilot: Drew L. (13237)
Aircraft: BOEING 737-800
(B738)
More flights by this aircraft type
Origin: KBUR Bob Hope-Burbank
United States
Destination: KTUS Tucson Intl
United States
More flights between these airports :: More routes between these airports
Route: SLAPP1 BLH J169 TFD DINGO5
File this flight plan on PilotEdge
Remarks: PBN / A1B1C1D1S1S2 DOF / 181109 REG / N806SB EET / KZAB0032 OPR / SWA PER / C RMK / TCAS SIMBRIEF
Altitude:
(Current/Filed)
35,000ft
Speed:
(Current/Filed)
444kts
Departed: 08-Nov-18 04:58 PM
Arrived: 08-Nov-18 06:13 PM
Distance/Time
Traveled:
393nm/1:15
Distance/Time
To Go:
Arrived

Flight Plot

Page will automatically refresh every two minutes.

Flight plan parsing failed; only flown route is shown


Map Options




Map Legend


Flown Route
Filed Route
Departure Airport
Arrival Airport
Navaid (VOR, NDB)
Fix

Horizontal Profiles

Position Reports

Time Latitude Longitude Heading Altitude Ground
Speed
08-Nov-18 16:41 34.196851 -118.351077 179 738ft 0kts
08-Nov-18 16:42 34.196851 -118.351077 179 738ft 0kts
08-Nov-18 16:43 34.196851 -118.351077 179 738ft 0kts
08-Nov-18 16:44 34.196851 -118.351077 179 738ft 0kts
08-Nov-18 16:45 34.196851 -118.351077 179 738ft 0kts
08-Nov-18 16:46 34.196851 -118.351077 179 738ft 0kts
08-Nov-18 16:47 34.196851 -118.351077 179 738ft 0kts
08-Nov-18 16:48 34.196851 -118.351077 179 738ft 0kts
08-Nov-18 16:49 34.196851 -118.351077 179 738ft 0kts
08-Nov-18 16:50 34.196851 -118.351077 179 738ft 0kts
08-Nov-18 16:51 34.196851 -118.351077 179 738ft 0kts
08-Nov-18 16:52 34.197152 -118.350909 246 738ft 2kts
08-Nov-18 16:53 34.197174 -118.350705 271 738ft 0kts
08-Nov-18 16:54 34.197174 -118.350705 271 738ft 0kts
08-Nov-18 16:55 34.197173 -118.350705 271 738ft 0kts
08-Nov-18 16:56 34.197213 -118.352507 272 738ft 14kts
08-Nov-18 16:57 34.197242 -118.353480 272 738ft 0kts
08-Nov-18 16:58 34.197242 -118.353480 272 738ft 0kts
08-Nov-18 16:59 34.197242 -118.353480 272 738ft 0kts
08-Nov-18 17:00 34.197242 -118.353480 272 738ft 0kts
08-Nov-18 17:01 34.196885 -118.360750 271 738ft 41kts
08-Nov-18 17:02 34.196927 -118.368394 270 738ft 0kts
08-Nov-18 17:03 34.196927 -118.368394 270 738ft 0kts
08-Nov-18 17:04 34.197932 -118.368940 89 738ft 4kts
08-Nov-18 17:05 34.197817 -118.362018 89 738ft 112kts
08-Nov-18 17:06 34.174583 -118.322319 202 3243ft 177kts
08-Nov-18 17:07 34.140093 -118.354094 222 4753ft 218kts
08-Nov-18 17:08 34.108950 -118.421449 289 6316ft 267kts
08-Nov-18 17:09 34.171259 -118.455828 351 9180ft 280kts
08-Nov-18 17:10 34.243863 -118.467237 352 11191ft 323kts
08-Nov-18 17:11 34.335314 -118.480509 0 14007ft 343kts
08-Nov-18 17:12 34.396450 -118.401429 54 14057ft 348kts
08-Nov-18 17:13 34.463944 -118.322605 20 14556ft 345kts
08-Nov-18 17:14 34.538928 -118.256797 36 17825ft 353kts
08-Nov-18 17:15 34.610648 -118.184938 35 19188ft 363kts
08-Nov-18 17:16 34.669268 -118.090291 67 20915ft 397kts
08-Nov-18 17:17 34.677735 -117.955077 100 23253ft 427kts
08-Nov-18 17:18 34.631870 -117.818781 115 25400ft 448kts
08-Nov-18 17:19 34.577239 -117.680197 115 27586ft 460kts
08-Nov-18 17:20 34.522229 -117.541010 116 29902ft 461kts
08-Nov-18 17:21 34.466351 -117.400262 116 31589ft 473kts
08-Nov-18 17:22 34.419584 -117.282769 117 33163ft 474kts
08-Nov-18 17:23 34.363342 -117.141847 118 34938ft 473kts
08-Nov-18 17:24 34.308591 -116.997607 111 35142ft 506kts
08-Nov-18 17:25 34.258792 -116.833784 112 35085ft 517kts
08-Nov-18 17:26 34.208962 -116.672932 113 35101ft 516kts
08-Nov-18 17:27 34.158660 -116.511518 112 35145ft 516kts
08-Nov-18 17:28 34.108472 -116.351311 113 35156ft 516kts
08-Nov-18 17:29 34.062523 -116.205024 113 35183ft 516kts
08-Nov-18 17:30 34.011485 -116.043527 113 35157ft 516kts
08-Nov-18 17:31 33.960305 -115.882545 113 35102ft 516kts
08-Nov-18 17:32 33.908752 -115.721349 113 35051ft 516kts
08-Nov-18 17:33 33.858020 -115.563582 113 35051ft 516kts
08-Nov-18 17:34 33.809525 -115.413539 113 35054ft 516kts
08-Nov-18 17:35 33.760460 -115.262371 114 35047ft 515kts
08-Nov-18 17:36 33.708025 -115.101521 114 35053ft 518kts
08-Nov-18 17:37 33.660879 -114.938206 124 35063ft 516kts
08-Nov-18 17:38 33.587023 -114.795767 99 35098ft 526kts
08-Nov-18 17:39 33.581930 -114.621904 97 35062ft 527kts
08-Nov-18 17:40 33.566535 -114.446498 97 35064ft 529kts
08-Nov-18 17:41 33.552458 -114.288359 97 35050ft 527kts
08-Nov-18 17:42 33.541193 -114.162400 97 35047ft 528kts
08-Nov-18 17:43 33.525319 -113.987891 97 35031ft 528kts
08-Nov-18 17:44 33.477980 -113.827607 121 35020ft 519kts
08-Nov-18 17:45 33.413664 -113.673534 121 35002ft 518kts
08-Nov-18 17:46 33.349135 -113.519757 121 34999ft 517kts
08-Nov-18 17:47 33.284556 -113.366593 121 35000ft 517kts
08-Nov-18 17:48 33.244129 -113.270900 121 34985ft 516kts
08-Nov-18 17:49 33.209255 -113.188506 121 34982ft 517kts
08-Nov-18 17:50 33.145252 -113.037823 121 34982ft 517kts
08-Nov-18 17:51 33.081160 -112.887499 122 34979ft 505kts
08-Nov-18 17:52 33.019256 -112.743042 122 34019ft 501kts
08-Nov-18 17:53 32.957520 -112.599518 121 31644ft 480kts
08-Nov-18 17:54 32.898454 -112.462800 121 29288ft 461kts
08-Nov-18 17:55 32.843212 -112.335455 121 27029ft 446kts
08-Nov-18 17:56 32.790218 -112.213551 121 24736ft 432kts
08-Nov-18 17:57 32.735952 -112.089214 121 22330ft 418kts
08-Nov-18 17:58 32.683295 -111.969048 120 19936ft 406kts
08-Nov-18 17:59 32.632207 -111.852877 120 17535ft 388kts
08-Nov-18 18:00 32.584814 -111.745417 119 15150ft 359kts
08-Nov-18 18:01 32.539620 -111.643353 119 12745ft 340kts
08-Nov-18 18:02 32.496916 -111.547241 120 10943ft 311kts
08-Nov-18 18:03 32.445852 -111.465008 129 10944ft 312kts
08-Nov-18 18:04 32.393820 -111.385333 129 10031ft 298kts
08-Nov-18 18:05 32.343932 -111.309620 129 9022ft 286kts
08-Nov-18 18:06 32.288942 -111.245356 139 8109ft 274kts
08-Nov-18 18:07 32.235038 -111.187974 139 7527ft 262kts
08-Nov-18 18:08 32.192432 -111.143092 139 7243ft 249kts
08-Nov-18 18:09 32.143070 -111.087093 134 6747ft 247kts
08-Nov-18 18:10 32.096322 -111.029805 134 6257ft 245kts
08-Nov-18 18:11 32.051561 -110.974822 134 5955ft 203kts
08-Nov-18 18:12 32.015951 -110.929093 113 5962ft 189kts
08-Nov-18 18:13 32.043980 -110.890092 19 5333ft 161kts
08-Nov-18 18:14 32.081346 -110.898137 311 3433ft 143kts
08-Nov-18 18:15 32.107521 -110.929313 315 2597ft 95kts
08-Nov-18 18:16 32.114952 -110.936381 44 2597ft 14kts
08-Nov-18 18:17 32.118456 -110.937987 41 2597ft 9kts

Navigation Log

Ident Type
Flight plan parsing failed, navigation log unavailable